Pocono Summit, Pennsylvania
Current Conditions -  °F | °C
As of 5:53 PM on Thursday 20 Nov 2014 (Local Time) from KMPO Reporting Station
Clear Clear  
Wind Chill: 16°   Ceiling: Unl
Heat Index: 27°   Visibility: 10mi
Dew Point: 11°   Wind: 13mph
Humidity: 51%   Direction: 290°WNW
Pressure: 29.84"   Gusts: 21mph
Location:  41.11°N, 75.39°W
Report Text: KMPO 202253Z AUTO 29011G18KT 10SM CLR M03/M12 A2984 RMK AO2 SLP127 T10281117
Loading
Personal Weather Stations






























Interactive Weather Map New forecast layout! Learn more

10-Day Weather Forecast

Advertisements
Track Severe Weather on mobile